Time;durP1;ratioP1;P1;durP2;ratioP2;P2;SDS_P1;SDS_P2;PMS_P1;PMS_P2;Temp;Humidity;BMP_temperature;BMP_pressure;BME280_temperature;BME280_humidity;BME280_pressure;Samples;Min_cycle;Max_cycle;Signal;HPM_P1;HPM_P2
2022/12/05 00:02:10;;;;;;;25.50;7.87;;;;;;;2.65;100.00;95979.53;5057256;28;20204;-71
2022/12/05 00:04:36;;;;;;;24.60;7.30;;;;;;;2.75;100.00;95980.38;5056566;28;20203;-71
2022/12/05 00:07:04;;;;;;;25.63;7.10;;;;;;;2.81;100.00;95994.59;5056247;28;21179;-71
2022/12/05 00:09:31;;;;;;;23.20;7.50;;;;;;;2.73;100.00;95987.47;5056961;28;20250;-71
2022/12/05 00:11:57;;;;;;;20.40;7.80;;;;;;;2.77;100.00;95983.63;5058121;28;20211;-71
2022/12/05 00:14:24;;;;;;;23.20;7.53;;;;;;;2.81;100.00;95994.59;5056775;28;20211;-71
2022/12/05 00:16:50;;;;;;;22.97;6.80;;;;;;;2.79;100.00;95993.91;5057131;28;20573;-71
2022/12/05 00:19:17;;;;;;;24.13;8.03;;;;;;;2.66;100.00;95996.78;5056934;28;20676;-71
2022/12/05 00:21:44;;;;;;;25.97;8.07;;;;;;;2.84;100.00;96002.97;5056247;28;21363;-71
2022/12/05 00:24:15;;;;;;;31.67;8.60;;;;;;;2.96;100.00;96001.06;5055185;28;21044;-70
2022/12/05 00:26:42;;;;;;;7.40;3.67;;;;;;;2.75;100.00;96016.78;5056934;28;20223;-71
2022/12/05 00:29:09;;;;;;;25.63;8.07;;;;;;;2.67;100.00;96008.00;5056900;28;20208;-70
2022/12/05 00:31:35;;;;;;;30.23;8.67;;;;;;;2.75;100.00;96014.19;5057086;28;20228;-71
2022/12/05 00:34:03;;;;;;;28.87;9.47;;;;;;;2.78;100.00;96016.50;5055809;28;20668;-71
2022/12/05 00:36:31;;;;;;;29.20;8.87;;;;;;;2.86;100.00;96019.25;5056886;28;20216;-70
2022/12/05 00:39:00;;;;;;;30.97;10.20;;;;;;;2.88;100.00;96009.53;5057037;28;20209;-71
2022/12/05 00:41:29;;;;;;;24.13;7.07;;;;;;;2.75;100.00;96018.53;5056706;28;20208;-70
2022/12/05 00:43:58;;;;;;;23.63;6.80;;;;;;;2.62;100.00;96015.38;5056597;28;20207;-71
2022/12/05 00:46:26;;;;;;;22.83;6.73;;;;;;;2.61;100.00;96017.19;5056452;28;20232;-71
2022/12/05 00:48:53;;;;;;;22.57;7.43;;;;;;;2.66;100.00;96022.81;5056420;28;20236;-70
2022/12/05 00:51:23;;;;;;;22.13;4.70;;;;;;;2.60;100.00;96038.94;5056352;28;20213;-70
2022/12/05 00:53:50;;;;;;;10.97;4.10;;;;;;;2.35;100.00;96048.19;5055957;28;20197;-70
2022/12/05 00:56:21;;;;;;;14.77;4.67;;;;;;;2.55;100.00;96055.91;5056553;28;20224;-71
2022/12/05 00:58:51;;;;;;;15.00;4.60;;;;;;;2.36;100.00;96075.81;5057103;28;20201;-70
2022/12/05 01:01:20;;;;;;;19.60;7.40;;;;;;;2.49;100.00;96082.44;5056361;28;20214;-71
2022/12/05 01:03:47;;;;;;;19.40;7.23;;;;;;;2.29;100.00;96085.09;5055879;28;20207;-71
2022/12/05 01:06:15;;;;;;;24.20;8.77;;;;;;;2.31;100.00;96075.41;5055937;28;20229;-70
2022/12/05 01:08:42;;;;;;;14.27;4.83;;;;;;;2.21;100.00;96080.53;5056470;28;20228;-70
2022/12/05 01:11:10;;;;;;;20.70;6.87;;;;;;;2.26;100.00;96077.56;5056643;28;20200;-71
2022/12/05 01:13:37;;;;;;;11.23;4.03;;;;;;;2.18;100.00;96087.78;5055754;28;21031;-71
2022/12/05 01:16:06;;;;;;;25.57;7.37;;;;;;;2.24;100.00;96097.66;5056379;28;20228;-70
2022/12/05 01:18:33;;;;;;;18.33;6.03;;;;;;;2.14;100.00;96101.97;5056279;28;20197;-71
2022/12/05 01:20:59;;;;;;;17.30;6.83;;;;;;;2.13;100.00;96116.75;5056414;28;20215;-71
2022/12/05 01:23:26;;;;;;;19.47;6.77;;;;;;;2.08;100.00;96118.91;5059468;28;20206;-71
2022/12/05 01:25:53;;;;;;;24.17;7.37;;;;;;;2.05;100.00;96128.75;5059916;28;20602;-70
2022/12/05 01:28:19;;;;;;;23.37;7.80;;;;;;;2.10;100.00;96135.22;5060219;28;20232;-71
2022/12/05 01:30:48;;;;;;;19.10;7.07;;;;;;;2.12;100.00;96132.50;5059896;28;20296;-70
2022/12/05 01:33:17;;;;;;;15.13;4.93;;;;;;;2.03;100.00;96135.84;5058914;28;20293;-70
2022/12/05 01:35:44;;;;;;;8.83;4.33;;;;;;;1.96;100.00;96145.09;5058678;28;20303;-70
2022/12/05 01:38:12;;;;;;;12.30;4.13;;;;;;;1.85;100.00;96148.59;5060122;28;20642;-70
2022/12/05 01:40:39;;;;;;;20.03;6.63;;;;;;;1.82;100.00;96153.25;5061167;28;20251;-70
2022/12/05 01:43:13;;;;;;;13.00;4.67;;;;;;;1.81;100.00;96146.38;5059615;28;20388;-70
2022/12/05 01:45:42;;;;;;;12.20;4.60;;;;;;;1.92;100.00;96143.72;5059031;28;20316;-70
2022/12/05 01:48:13;;;;;;;16.50;5.73;;;;;;;2.07;100.00;96126.84;5060275;28;20342;-71
2022/12/05 01:50:42;;;;;;;23.23;6.57;;;;;;;2.08;100.00;96125.91;5059749;28;20275;-70
2022/12/05 01:53:09;;;;;;;21.27;6.10;;;;;;;2.05;100.00;96120.94;5060167;28;20246;-71
2022/12/05 01:55:36;;;;;;;21.30;6.07;;;;;;;2.13;100.00;96127.16;5058594;28;20228;-71
2022/12/05 01:58:05;;;;;;;15.87;5.03;;;;;;;2.00;100.00;96120.53;5059204;28;20204;-70
2022/12/05 02:00:32;;;;;;;21.07;7.00;;;;;;;1.94;100.00;96126.22;5058973;28;20196;-70
2022/12/05 02:03:04;;;;;;;16.63;6.37;;;;;;;2.05;100.00;96139.13;5059486;28;20204;-71
2022/12/05 02:05:32;;;;;;;14.57;5.47;;;;;;;2.18;100.00;96139.78;5058700;28;20223;-71
2022/12/05 02:08:07;;;;;;;21.33;6.03;;;;;;;2.34;100.00;96140.13;5059275;28;20230;-70
2022/12/05 02:10:37;;;;;;;20.67;6.07;;;;;;;2.12;100.00;96159.28;5059569;28;20209;-71
2022/12/05 02:13:17;;;;;;;18.40;7.43;;;;;;;2.29;100.00;96163.91;5059243;28;20205;-71
2022/12/05 02:15:49;;;;;;;12.27;4.50;;;;;;;2.13;100.00;96179.13;5058761;28;20230;-71
2022/12/05 02:18:33;;;;;;;18.03;5.50;;;;;;;2.09;100.00;96182.94;5059201;28;20210;-70
2022/12/05 02:21:21;;;;;;;17.50;6.13;;;;;;;2.11;100.00;96182.81;5059381;28;20211;-70
2022/12/05 02:24:25;;;;;;;12.70;5.73;;;;;;;2.16;100.00;96178.06;5058181;28;20723;-70
2022/12/05 02:27:17;;;;;;;21.37;5.60;;;;;;;2.17;100.00;96169.31;5048997;28;20224;-71
2022/12/05 02:30:08;;;;;;;19.90;6.93;;;;;;;2.30;100.00;96177.72;5058904;28;20219;-71
2022/12/05 02:32:47;;;;;;;17.90;6.70;;;;;;;2.18;100.00;96189.16;5059132;28;20208;-71
2022/12/05 02:35:25;;;;;;;18.10;5.93;;;;;;;2.18;100.00;96191.75;5057288;28;20220;-70
2022/12/05 02:37:57;;;;;;;23.73;7.63;;;;;;;2.26;100.00;96189.34;5059192;28;20203;-71
2022/12/05 02:40:30;;;;;;;23.43;7.23;;;;;;;2.11;100.00;96180.22;5058926;28;20215;-71
2022/12/05 02:43:11;;;;;;;19.57;5.53;;;;;;;2.17;100.00;96182.31;5059064;28;20208;-71
2022/12/05 02:45:41;;;;;;;16.63;5.20;;;;;;;2.15;100.00;96171.19;5058020;28;20223;-70
2022/12/05 02:48:11;;;;;;;15.97;5.20;;;;;;;2.16;100.00;96162.47;5058780;28;20741;-70
2022/12/05 02:50:40;;;;;;;23.87;6.97;;;;;;;2.29;100.00;96173.47;5058723;28;20546;-70
2022/12/05 02:53:11;;;;;;;13.83;5.37;;;;;;;2.32;100.00;96183.59;5058237;28;20949;-71
2022/12/05 02:55:40;;;;;;;19.77;7.33;;;;;;;2.35;100.00;96183.38;5057456;28;20216;-70
2022/12/05 02:58:11;;;;;;;13.67;5.40;;;;;;;2.34;100.00;96181.72;5059537;28;20205;-71
2022/12/05 03:00:42;;;;;;;21.47;5.63;;;;;;;2.26;100.00;96179.75;5058495;28;20202;-71
2022/12/05 03:03:13;;;;;;;17.57;5.87;;;;;;;2.33;100.00;96185.25;5057793;28;20208;-71
2022/12/05 03:05:45;;;;;;;19.80;5.53;;;;;;;2.30;100.00;96195.94;5057571;28;20229;-70
2022/12/05 03:08:17;;;;;;;14.60;5.80;;;;;;;2.41;100.00;96187.09;5058213;28;20291;-71
2022/12/05 03:10:46;;;;;;;17.13;5.77;;;;;;;2.35;100.00;96191.16;5057741;28;20207;-72
2022/12/05 03:13:18;;;;;;;19.80;5.33;;;;;;;2.44;100.00;96188.59;5057691;28;20207;-71
2022/12/05 03:15:48;;;;;;;19.10;6.50;;;;;;;2.61;100.00;96201.84;5057412;28;20729;-71
2022/12/05 03:18:21;;;;;;;29.27;8.00;;;;;;;2.58;100.00;96198.66;5058153;28;20212;-71
2022/12/05 03:20:52;;;;;;;17.60;6.43;;;;;;;2.21;100.00;96199.28;5057633;28;20208;-71
2022/12/05 03:23:23;;;;;;;22.83;6.63;;;;;;;2.36;100.00;96204.03;5058248;28;20230;-71
2022/12/05 03:25:54;;;;;;;24.90;6.43;;;;;;;2.46;100.00;96189.31;5057154;28;20233;-71
2022/12/05 03:28:25;;;;;;;22.07;6.27;;;;;;;2.49;100.00;96189.03;5057916;28;20230;-70
2022/12/05 03:30:56;;;;;;;21.70;6.53;;;;;;;2.45;100.00;96188.47;5058129;28;20724;-71
2022/12/05 03:33:26;;;;;;;18.63;6.47;;;;;;;2.52;100.00;96192.22;5057606;28;20676;-70
2022/12/05 03:36:01;;;;;;;24.57;7.03;;;;;;;2.57;100.00;96197.84;5057356;28;20224;-71
2022/12/05 03:38:33;;;;;;;19.80;6.37;;;;;;;2.71;100.00;96204.47;5058059;28;20207;-71
2022/12/05 03:41:06;;;;;;;20.03;7.17;;;;;;;2.71;100.00;96194.06;5057986;28;20203;-71
2022/12/05 03:43:45;;;;;;;21.03;6.47;;;;;;;2.50;100.00;96203.69;5057065;28;20204;-71
2022/12/05 03:46:20;;;;;;;21.13;6.43;;;;;;;2.64;100.00;96196.38;5056870;28;20222;-71
2022/12/05 03:48:53;;;;;;;21.33;7.17;;;;;;;2.71;100.00;96202.72;5057828;28;20234;-71
2022/12/05 03:51:26;;;;;;;24.83;7.87;;;;;;;2.57;100.00;96210.00;5055621;28;20215;-70
2022/12/05 03:53:57;;;;;;;23.40;7.07;;;;;;;2.55;100.00;96217.16;5057147;28;20223;-71
2022/12/05 03:56:29;;;;;;;20.73;6.83;;;;;;;2.65;100.00;96216.22;5057899;28;20227;-71
2022/12/05 03:59:02;;;;;;;33.47;7.80;;;;;;;2.61;100.00;96214.84;5057317;28;20204;-70
2022/12/05 04:01:33;;;;;;;20.60;6.93;;;;;;;2.47;100.00;96212.56;5057227;28;20204;-71
2022/12/05 04:04:08;;;;;;;23.47;7.27;;;;;;;2.70;100.00;96208.88;5057275;28;20213;-70
2022/12/05 04:06:38;;;;;;;30.07;8.93;;;;;;;2.65;100.00;96216.22;5056133;28;20231;-70
2022/12/05 04:09:09;;;;;;;23.17;6.87;;;;;;;2.67;100.00;96211.75;5056835;28;20233;-71
2022/12/05 04:11:40;;;;;;;30.93;7.57;;;;;;;2.63;100.00;96205.13;5057734;28;20203;-71
2022/12/05 04:14:11;;;;;;;26.23;6.93;;;;;;;2.68;100.00;96202.94;5056275;28;20193;-70
2022/12/05 04:21:36;;;;;;;20.07;6.43;;;;;;;2.58;100.00;96201.25;5057589;28;20219;-70
2022/12/05 04:22:18;;;;;;;29.73;8.10;;;;;;;2.69;100.00;96193.38;5056696;28;20226;-70
2022/12/05 04:27:38;;;;;;;30.97;8.80;;;;;;;2.71;100.00;96201.88;5057257;28;20214;-71
2022/12/05 04:30:07;;;;;;;25.80;8.50;;;;;;;2.74;100.00;96212.84;5057020;28;20768;-71
2022/12/05 04:32:41;;;;;;;32.43;8.97;;;;;;;2.78;100.00;96219.44;5056493;28;20202;-71
2022/12/05 04:35:13;;;;;;;31.70;8.73;;;;;;;2.70;100.00;96214.06;5056185;28;20203;-71
2022/12/05 04:37:45;;;;;;;28.13;8.23;;;;;;;2.81;100.00;96211.34;5056530;28;20900;-71
2022/12/05 04:40:18;;;;;;;34.03;9.20;;;;;;;2.91;100.00;96209.63;5056964;28;20213;-70
2022/12/05 04:42:47;;;;;;;26.33;7.23;;;;;;;2.87;100.00;96197.03;5057330;28;21098;-71
2022/12/05 04:45:17;;;;;;;27.00;7.90;;;;;;;2.93;100.00;96186.91;5056050;28;20234;-70
2022/12/05 04:47:49;;;;;;;25.10;8.97;;;;;;;3.02;100.00;96189.53;5055907;28;20207;-71
2022/12/05 04:50:17;;;;;;;24.60;8.37;;;;;;;2.98;100.00;96194.31;5057178;28;20283;-71
2022/12/05 04:52:47;;;;;;;27.57;8.00;;;;;;;2.95;100.00;96200.59;5056978;28;20926;-71
2022/12/05 04:55:18;;;;;;;25.87;7.77;;;;;;;3.01;100.00;96200.06;5057262;28;20227;-70
2022/12/05 04:57:52;;;;;;;19.93;7.80;;;;;;;3.03;100.00;96208.59;5056157;28;20203;-71
2022/12/05 05:00:19;;;;;;;30.30;9.20;;;;;;;3.04;100.00;96215.41;5056417;28;20710;-71
2022/12/05 05:02:54;;;;;;;27.73;8.57;;;;;;;3.15;100.00;96217.94;5056702;28;20208;-71
2022/12/05 05:05:23;;;;;;;26.63;7.07;;;;;;;3.10;100.00;96209.69;5055909;28;20230;-70
2022/12/05 05:07:51;;;;;;;24.10;9.03;;;;;;;2.89;100.00;96214.16;5056587;28;20211;-71
2022/12/05 05:10:24;;;;;;;33.70;9.63;;;;;;;3.00;100.00;96215.81;5055790;28;20217;-71
2022/12/05 05:12:51;;;;;;;26.87;8.67;;;;;;;2.97;100.00;96224.72;5056136;28;20205;-71
2022/12/05 05:15:17;;;;;;;27.60;9.00;;;;;;;3.00;100.00;96226.22;5055619;28;21301;-70
2022/12/05 05:17:44;;;;;;;21.40;6.73;;;;;;;3.06;100.00;96229.94;5056710;28;20213;-71
2022/12/05 05:20:25;;;;;;;30.70;9.50;;;;;;;3.18;100.00;96228.91;5056044;28;20208;-70
2022/12/05 05:22:53;;;;;;;33.77;9.13;;;;;;;3.08;100.00;96228.03;5056831;28;20222;-70
2022/12/05 05:25:20;;;;;;;26.83;8.40;;;;;;;3.20;100.00;96233.97;5055567;28;20220;-71
2022/12/05 05:27:50;;;;;;;29.77;9.07;;;;;;;3.19;100.00;96233.13;5055195;28;20205;-71
2022/12/05 05:30:18;;;;;;;28.17;9.97;;;;;;;3.21;100.00;96233.03;5056220;28;20215;-71
2022/12/05 05:32:44;;;;;;;37.27;11.57;;;;;;;3.10;100.00;96226.13;5056807;28;20668;-71
2022/12/05 05:35:13;;;;;;;45.37;12.93;;;;;;;3.12;100.00;96228.63;5054626;28;20702;-71
2022/12/05 05:37:40;;;;;;;42.93;12.97;;;;;;;3.13;100.00;96225.03;5056387;28;20206;-71
2022/12/05 05:40:10;;;;;;;45.23;14.50;;;;;;;3.28;100.00;96234.13;5055452;28;20222;-71
2022/12/05 05:42:37;;;;;;;46.67;14.43;;;;;;;3.21;100.00;96238.22;5056041;28;20296;-71
2022/12/05 05:45:04;;;;;;;42.67;12.17;;;;;;;3.28;100.00;96239.34;5056399;28;20699;-71
2022/12/05 05:47:30;;;;;;;35.63;11.57;;;;;;;3.24;100.00;96248.38;5056808;28;20207;-70
2022/12/05 05:49:57;;;;;;;36.40;10.77;;;;;;;3.28;100.00;96253.16;5056656;28;20235;-71
2022/12/05 05:52:25;;;;;;;35.03;10.00;;;;;;;3.41;100.00;96250.31;5056391;28;20302;-71
2022/12/05 05:54:51;;;;;;;33.53;10.63;;;;;;;3.42;100.00;96254.59;5055757;28;20215;-71
2022/12/05 05:57:18;;;;;;;28.40;8.97;;;;;;;3.43;100.00;96246.63;5056087;28;20218;-71
2022/12/05 05:59:45;;;;;;;32.23;9.07;;;;;;;3.24;100.00;96251.78;5056917;28;20611;-71
2022/12/05 06:02:12;;;;;;;28.40;9.27;;;;;;;3.32;100.00;96258.94;5056271;28;20208;-71
2022/12/05 06:04:38;;;;;;;26.90;10.07;;;;;;;3.23;100.00;96262.34;5055698;28;20215;-71
2022/12/05 06:07:05;;;;;;;24.13;8.23;;;;;;;3.34;100.00;96272.66;5053840;28;20983;-70
2022/12/05 06:09:33;;;;;;;22.03;6.93;;;;;;;3.32;100.00;96261.53;5055766;28;20227;-71
2022/12/05 06:11:59;;;;;;;29.77;10.30;;;;;;;3.22;100.00;96265.88;5059364;28;20203;-71
2022/12/05 06:14:26;;;;;;;24.03;8.13;;;;;;;3.27;100.00;96255.91;5058376;28;20204;-71
2022/12/05 06:16:52;;;;;;;22.83;7.47;;;;;;;3.28;100.00;96258.38;5058772;28;20597;-70
2022/12/05 06:19:19;;;;;;;37.40;9.33;;;;;;;3.23;100.00;96263.19;5058425;28;20205;-70
2022/12/05 06:21:45;;;;;;;23.80;7.70;;;;;;;3.31;100.00;96265.09;5058561;28;20218;-71
2022/12/05 06:24:12;;;;;;;22.27;7.17;;;;;;;3.28;100.00;96260.16;5057721;28;20200;-70
2022/12/05 06:26:40;;;;;;;25.23;8.53;;;;;;;3.30;100.00;96268.69;5058928;28;20235;-70
2022/12/05 06:29:06;;;;;;;26.43;8.37;;;;;;;3.23;100.00;96260.56;5058856;28;20235;-71
2022/12/05 06:31:33;;;;;;;29.53;8.97;;;;;;;3.32;100.00;96266.75;5058702;28;21184;-71
2022/12/05 06:34:01;;;;;;;28.30;9.83;;;;;;;3.38;100.00;96276.66;5057476;28;20217;-70
2022/12/05 06:36:28;;;;;;;24.67;7.70;;;;;;;3.43;100.00;96271.88;5058480;28;20238;-70
2022/12/05 06:38:56;;;;;;;23.53;7.43;;;;;;;3.54;100.00;96288.22;5059920;28;20208;-70
2022/12/05 06:41:23;;;;;;;29.23;8.13;;;;;;;3.46;100.00;96295.84;5058578;28;20208;-71
2022/12/05 06:43:52;;;;;;;26.23;9.67;;;;;;;3.49;100.00;96294.75;5058330;28;20223;-70
2022/12/05 06:46:18;;;;;;;29.37;9.10;;;;;;;3.41;100.00;96299.81;5059367;28;20581;-70
2022/12/05 06:48:45;;;;;;;34.07;10.63;;;;;;;3.42;100.00;96296.25;5059237;28;20233;-71
2022/12/05 06:51:13;;;;;;;29.00;9.43;;;;;;;3.57;100.00;96295.75;5058219;28;20215;-71
2022/12/05 06:53:40;;;;;;;24.27;7.77;;;;;;;3.46;100.00;96305.44;5058491;28;20596;-71
2022/12/05 06:56:11;;;;;;;23.23;8.70;;;;;;;3.61;100.00;96306.75;5058604;28;20227;-71
2022/12/05 06:58:37;;;;;;;23.80;8.73;;;;;;;3.46;100.00;96321.06;5058219;28;20199;-71
2022/12/05 07:03:49;;;;;;;30.50;9.40;;;;;;;3.61;100.00;96327.56;5057798;28;20569;-71
2022/12/05 07:06:16;;;;;;;26.13;8.50;;;;;;;3.67;100.00;96328.69;5058033;28;20228;-71
2022/12/05 07:08:43;;;;;;;20.10;7.87;;;;;;;3.75;100.00;96318.41;5058983;28;20228;-71
2022/12/05 07:11:10;;;;;;;23.30;9.33;;;;;;;3.79;100.00;96334.59;5058067;28;21223;-71
2022/12/05 07:13:37;;;;;;;26.97;8.47;;;;;;;3.73;100.00;96325.56;5057438;28;20192;-70
2022/12/05 07:16:06;;;;;;;33.53;9.00;;;;;;;3.70;100.00;96331.03;5057758;28;20819;-71
2022/12/05 07:18:33;;;;;;;23.63;8.30;;;;;;;3.66;100.00;96332.25;5058341;28;20200;-71
2022/12/05 07:21:01;;;;;;;24.80;9.63;;;;;;;3.77;100.00;96332.13;5057481;28;20214;-71
2022/12/05 07:23:28;;;;;;;25.47;9.33;;;;;;;3.78;100.00;96341.63;5057827;28;20690;-71
2022/12/05 07:25:56;;;;;;;28.60;9.30;;;;;;;3.71;100.00;96343.09;5058081;28;20228;-73
2022/12/05 07:28:23;;;;;;;24.10;9.90;;;;;;;3.82;100.00;96342.19;5057789;28;20207;-73
2022/12/05 07:30:59;;;;;;;33.77;11.10;;;;;;;3.95;100.00;96338.34;5058088;28;20207;-73
2022/12/05 07:33:27;;;;;;;30.43;10.00;;;;;;;3.84;100.00;96345.47;5056600;28;20204;-72
2022/12/05 07:35:53;;;;;;;32.33;8.87;;;;;;;3.78;100.00;96346.81;5057161;28;20231;-71
2022/12/05 07:38:20;;;;;;;38.70;10.73;;;;;;;3.87;100.00;96338.19;5058052;28;20204;-71
2022/12/05 07:40:46;;;;;;;195.67;53.07;;;;;;;3.83;100.00;96342.03;5058055;28;20204;-71
2022/12/05 07:43:13;;;;;;;25.90;8.30;;;;;;;3.84;100.00;96338.44;5057753;28;20212;-71
2022/12/05 07:45:39;;;;;;;12.57;5.13;;;;;;;3.91;100.00;96331.75;5057725;28;20715;-71
2022/12/05 07:48:06;;;;;;;31.20;11.90;;;;;;;3.94;100.00;96335.88;5057307;28;20205;-73
2022/12/05 07:50:33;;;;;;;33.23;10.67;;;;;;;4.01;100.00;96334.38;5056742;28;20224;-73
2022/12/05 07:53:00;;;;;;;18.23;7.40;;;;;;;4.02;100.00;96339.47;5058011;28;20201;-73
2022/12/05 07:55:26;;;;;;;17.73;7.80;;;;;;;4.05;100.00;96340.97;5056724;28;20227;-73
2022/12/05 07:57:53;;;;;;;26.63;8.60;;;;;;;4.06;100.00;96337.41;5056657;28;20762;-71
2022/12/05 08:00:21;;;;;;;29.00;9.03;;;;;;;4.11;100.00;96336.06;5057743;28;20589;-72
2022/12/05 08:02:47;;;;;;;26.53;9.20;;;;;;;4.16;100.00;96328.63;5057251;28;20210;-72
2022/12/05 08:05:15;;;;;;;31.40;9.90;;;;;;;4.07;100.00;96339.88;5054913;28;20279;-72
2022/12/05 08:07:43;;;;;;;32.27;9.97;;;;;;;4.13;100.00;96349.75;5056296;28;20278;-72
2022/12/05 08:10:10;;;;;;;29.03;9.33;;;;;;;4.11;100.00;96356.91;5057307;28;20224;-72
2022/12/05 08:12:37;;;;;;;24.77;8.37;;;;;;;4.12;100.00;96353.31;5056902;28;20199;-72
2022/12/05 08:15:03;;;;;;;32.20;10.20;;;;;;;4.26;100.00;96348.56;5055769;28;20668;-72
2022/12/05 08:17:31;;;;;;;30.20;8.70;;;;;;;4.29;100.00;96348.28;5056773;28;20200;-71
2022/12/05 08:19:57;;;;;;;34.17;11.27;;;;;;;4.18;100.00;96342.34;5057050;28;20197;-71
2022/12/05 08:22:24;;;;;;;26.90;7.53;;;;;;;4.27;100.00;96347.56;5057390;28;20573;-71
2022/12/05 08:24:52;;;;;;;26.57;9.57;;;;;;;4.30;100.00;96344.72;5057716;28;20200;-71
2022/12/05 08:27:18;;;;;;;34.23;10.40;;;;;;;4.40;100.00;96347.31;5057352;28;20232;-71
2022/12/05 08:29:45;;;;;;;33.40;10.37;;;;;;;4.41;100.00;96356.78;5057014;28;20785;-71
2022/12/05 08:32:12;;;;;;;17.77;7.07;;;;;;;4.33;100.00;96362.69;5056028;28;20211;-71
2022/12/05 08:34:38;;;;;;;24.93;8.37;;;;;;;4.41;100.00;96365.44;5056061;28;20200;-72
2022/12/05 08:37:04;;;;;;;29.77;9.93;;;;;;;4.53;100.00;96363.50;5054853;28;20945;-73
2022/12/05 08:39:31;;;;;;;24.00;9.37;;;;;;;4.63;100.00;96366.94;5057274;28;20201;-71
2022/12/05 08:41:59;;;;;;;33.73;9.90;;;;;;;4.61;100.00;96361.88;5057148;28;20208;-73
2022/12/05 08:44:26;;;;;;;26.73;9.23;;;;;;;4.61;100.00;96363.63;5055191;28;20574;-73
2022/12/05 08:46:52;;;;;;;29.73;10.77;;;;;;;4.56;100.00;96363.25;5056043;28;20227;-73
2022/12/05 08:49:19;;;;;;;24.30;6.73;;;;;;;4.57;100.00;96367.50;5055098;28;20885;-71
2022/12/05 08:51:46;;;;;;;23.67;8.13;;;;;;;4.70;100.00;96365.41;5056771;28;20212;-71
2022/12/05 08:54:13;;;;;;;22.17;8.63;;;;;;;4.73;100.00;96375.59;5055661;28;20229;-71
2022/12/05 08:56:40;;;;;;;23.57;7.87;;;;;;;4.65;100.00;96375.47;5056497;28;20228;-71
2022/12/05 08:59:07;;;;;;;27.07;8.87;;;;;;;4.82;100.00;96384.25;5056258;28;20197;-71
2022/12/05 09:01:37;;;;;;;26.60;9.27;;;;;;;4.85;100.00;96380.53;5061862;28;20215;-71
2022/12/05 09:04:04;;;;;;;28.47;9.13;;;;;;;4.77;100.00;96388.22;5062116;28;20192;-71
2022/12/05 09:06:33;;;;;;;19.33;7.47;;;;;;;4.85;100.00;96391.81;5056212;28;20231;-71
2022/12/05 09:09:01;;;;;;;26.37;10.27;;;;;;;4.85;100.00;96391.00;5056940;28;20205;-71
2022/12/05 09:11:31;;;;;;;23.93;8.87;;;;;;;4.94;100.00;96390.97;5055318;28;20208;-71
2022/12/05 09:13:59;;;;;;;17.07;5.63;;;;;;;4.91;100.00;96396.47;5055175;28;20211;-71
2022/12/05 09:16:29;;;;;;;25.67;9.73;;;;;;;5.11;100.00;96398.09;5056727;28;20252;-71
2022/12/05 09:18:56;;;;;;;31.93;10.80;;;;;;;4.98;100.00;96402.78;5057226;28;20204;-71
2022/12/05 09:21:25;;;;;;;23.63;9.30;;;;;;;5.02;100.00;96398.09;5056397;28;20604;-71
2022/12/05 09:23:52;;;;;;;24.60;8.27;;;;;;;4.95;100.00;96400.47;5056295;28;20207;-71
2022/12/05 09:26:21;;;;;;;22.63;8.50;;;;;;;4.90;100.00;96413.09;5055617;28;20227;-71
2022/12/05 09:28:48;;;;;;;20.27;7.07;;;;;;;5.00;100.00;96421.75;5061306;28;20208;-71
2022/12/05 09:31:17;;;;;;;26.07;8.40;;;;;;;5.00;100.00;96416.53;5056635;28;20665;-71
2022/12/05 09:33:46;;;;;;;27.23;8.87;;;;;;;5.10;100.00;96416.50;5056020;28;20812;-71
2022/12/05 09:36:15;;;;;;;19.30;6.83;;;;;;;5.03;100.00;96415.44;5056337;28;20220;-71
2022/12/05 09:38:42;;;;;;;25.83;8.33;;;;;;;4.94;100.00;96417.06;5057342;28;20224;-71
2022/12/05 09:42:03;;;;;;;18.90;7.47;;;;;;;5.02;100.00;96414.59;5055896;28;21067;-71
2022/12/05 09:44:32;;;;;;;24.40;8.97;;;;;;;5.10;100.00;96422.53;5056871;28;20761;-71
2022/12/05 09:47:02;;;;;;;26.67;8.13;;;;;;;5.22;100.00;96424.06;5059949;28;20614;-71
2022/12/05 09:49:33;;;;;;;25.27;8.43;;;;;;;5.31;100.00;96425.84;5060028;28;20224;-71
2022/12/05 09:52:00;;;;;;;21.87;8.33;;;;;;;5.28;100.00;96415.63;5058444;28;20208;-71
2022/12/05 09:54:28;;;;;;;21.30;9.13;;;;;;;5.26;100.00;96417.59;5059148;28;20196;-72
2022/12/05 09:56:55;;;;;;;26.77;10.30;;;;;;;5.35;100.00;96410.69;5059193;28;20227;-71
2022/12/05 09:59:21;;;;;;;31.73;10.80;;;;;;;5.40;100.00;96413.69;5059805;28;20203;-71
2022/12/05 10:01:55;;;;;;;28.10;11.03;;;;;;;5.52;100.00;96402.94;5059946;28;20205;-71
2022/12/05 10:04:43;;;;;;;17.33;7.30;;;;;;;5.58;100.00;96402.38;5059027;28;20209;-71
2022/12/05 10:07:15;;;;;;;35.23;11.00;;;;;;;5.41;100.00;96400.50;5058909;28;20224;-71
2022/12/05 10:10:05;;;;;;;31.33;9.93;;;;;;;5.64;100.00;96404.44;5059966;28;20255;-72
2022/12/05 10:12:47;;;;;;;24.70;9.63;;;;;;;5.64;100.00;96386.13;5058899;28;20300;-74
2022/12/05 10:15:17;;;;;;;14.47;6.97;;;;;;;5.63;100.00;96394.94;5058520;28;20219;-72
2022/12/05 10:17:50;;;;;;;23.73;7.70;;;;;;;5.56;100.00;96391.22;5058300;28;20210;-73
2022/12/05 10:20:22;;;;;;;25.97;8.23;;;;;;;5.65;100.00;96392.97;5059961;28;20258;-73
2022/12/05 10:22:54;;;;;;;15.13;6.37;;;;;;;5.65;100.00;96385.97;5059507;28;20212;-73
2022/12/05 10:25:22;;;;;;;23.73;8.83;;;;;;;5.67;100.00;96391.06;5058008;28;20236;-74
2022/12/05 10:27:51;;;;;;;24.30;8.40;;;;;;;5.72;100.00;96387.03;5058744;28;20545;-74
2022/12/05 10:30:20;;;;;;;17.10;6.97;;;;;;;5.63;100.00;96387.09;5058734;28;20235;-75
2022/12/05 10:32:52;;;;;;;20.70;7.47;;;;;;;5.75;100.00;96385.94;5058834;28;20209;-73
2022/12/05 10:35:22;;;;;;;20.43;7.83;;;;;;;5.66;100.00;96385.00;5058068;28;20224;-73
2022/12/05 10:37:51;;;;;;;21.67;8.10;;;;;;;5.62;100.00;96381.00;5058365;28;21112;-72
2022/12/05 10:40:19;;;;;;;18.37;8.17;;;;;;;5.45;100.00;96386.19;5058681;28;20203;-72
2022/12/05 10:42:47;;;;;;;25.17;8.30;;;;;;;5.40;100.00;96393.63;5059113;28;20205;-72
2022/12/05 10:45:16;;;;;;;28.47;9.60;;;;;;;5.54;100.00;96388.75;5057879;28;20291;-72
2022/12/05 10:47:43;;;;;;;18.87;7.13;;;;;;;5.45;100.00;96396.63;5058930;28;20207;-72
2022/12/05 10:50:22;;;;;;;23.00;8.17;;;;;;;5.66;100.00;96392.81;5059376;28;20269;-72
2022/12/05 10:52:50;;;;;;;20.63;7.67;;;;;;;5.61;100.00;96391.63;5058635;28;20646;-72
2022/12/05 10:55:18;;;;;;;20.97;7.27;;;;;;;5.50;100.00;96383.97;5056660;28;20224;-74
2022/12/05 10:57:50;;;;;;;19.30;6.30;;;;;;;5.62;100.00;96383.63;5058408;28;20211;-73
2022/12/05 11:00:21;;;;;;;16.70;6.93;;;;;;;5.62;100.00;96372.38;5058316;28;20192;-74
2022/12/05 11:02:49;;;;;;;16.27;7.40;;;;;;;5.60;100.00;96374.28;5057249;28;20204;-74
2022/12/05 11:05:17;;;;;;;15.57;6.13;;;;;;;5.53;100.00;96388.91;5057868;28;20235;-73
2022/12/05 11:07:48;;;;;;;20.77;7.03;;;;;;;5.72;100.00;96386.22;5058378;28;20260;-72
2022/12/05 11:10:26;;;;;;;16.93;6.80;;;;;;;5.86;100.00;96388.41;5057169;28;20952;-72
2022/12/05 11:12:54;;;;;;;21.40;9.50;;;;;;;5.70;100.00;96401.22;5057265;28;20430;-72
2022/12/05 11:15:24;;;;;;;20.50;8.47;;;;;;;5.73;100.00;96401.75;5056672;28;20220;-72
2022/12/05 11:17:57;;;;;;;16.70;7.33;;;;;;;5.77;100.00;96397.91;5058049;28;20208;-72
2022/12/05 11:20:38;;;;;;;16.70;6.83;;;;;;;5.91;100.00;96404.47;5058102;28;20200;-71
2022/12/05 11:23:24;;;;;;;12.80;5.70;;;;;;;5.67;100.00;96396.28;5058319;28;20207;-71
2022/12/05 11:25:50;;;;;;;17.57;5.83;;;;;;;5.51;100.00;96396.06;5057109;28;20220;-71
2022/12/05 11:28:35;;;;;;;14.93;5.97;;;;;;;5.74;100.00;96402.56;5058312;28;20196;-72
2022/12/05 11:31:04;;;;;;;17.07;5.07;;;;;;;5.78;100.00;96403.97;5058115;28;20227;-72
2022/12/05 11:33:33;;;;;;;15.73;5.77;;;;;;;5.66;100.00;96399.84;5057331;28;20200;-73
2022/12/05 11:36:05;;;;;;;11.53;5.03;;;;;;;5.80;100.00;96407.28;5057830;28;20284;-72
2022/12/05 11:38:33;;;;;;;13.97;5.87;;;;;;;5.79;100.00;96392.53;5057436;28;20200;-72
2022/12/05 11:41:16;;;;;;;8.40;4.00;;;;;;;5.85;100.00;96389.34;5056197;28;20200;-72
2022/12/05 11:44:05;;;;;;;12.03;4.97;;;;;;;5.88;100.00;96394.28;5055484;28;20224;-72
2022/12/05 11:46:42;;;;;;;15.80;5.27;;;;;;;5.94;100.00;96397.16;5057797;28;20224;-73